sensor_id;sensor_type;location;lat;lon;timestamp;temperature;humidity
28484;DHT22;15704;48.834;8.736;2022-07-23T00:03:40;22.20;99.90
28484;DHT22;15704;48.834;8.736;2022-07-23T00:07:25;22.20;99.90
28484;DHT22;15704;48.834;8.736;2022-07-23T00:11:07;22.20;99.90
28484;DHT22;15704;48.834;8.736;2022-07-23T00:14:50;22.20;99.90
28484;DHT22;15704;48.834;8.736;2022-07-23T00:18:32;22.20;99.90
28484;DHT22;15704;48.834;8.736;2022-07-23T00:22:15;22.20;99.90
28484;DHT22;15704;48.834;8.736;2022-07-23T00:25:59;22.10;99.90
28484;DHT22;15704;48.834;8.736;2022-07-23T00:29:41;22.00;99.90
28484;DHT22;15704;48.834;8.736;2022-07-23T00:33:24;21.90;99.90
28484;DHT22;15704;48.834;8.736;2022-07-23T00:37:07;21.80;99.90
28484;DHT22;15704;48.834;8.736;2022-07-23T00:40:49;21.70;99.90
28484;DHT22;15704;48.834;8.736;2022-07-23T00:44:33;21.60;99.90
28484;DHT22;15704;48.834;8.736;2022-07-23T00:48:16;21.50;99.90
28484;DHT22;15704;48.834;8.736;2022-07-23T00:52:01;21.50;99.90
28484;DHT22;15704;48.834;8.736;2022-07-23T00:55:44;21.40;99.90
28484;DHT22;15704;48.834;8.736;2022-07-23T00:59:27;21.40;99.90
28484;DHT22;15704;48.834;8.736;2022-07-23T01:03:10;21.50;99.90
28484;DHT22;15704;48.834;8.736;2022-07-23T01:06:53;21.60;99.90
28484;DHT22;15704;48.834;8.736;2022-07-23T01:10:36;21.70;99.90
28484;DHT22;15704;48.834;8.736;2022-07-23T01:14:19;21.60;99.90
28484;DHT22;15704;48.834;8.736;2022-07-23T01:18:03;21.60;99.90
28484;DHT22;15704;48.834;8.736;2022-07-23T01:21:50;21.60;99.90
28484;DHT22;15704;48.834;8.736;2022-07-23T01:25:34;21.50;99.90
28484;DHT22;15704;48.834;8.736;2022-07-23T01:29:17;21.40;99.90
28484;DHT22;15704;48.834;8.736;2022-07-23T01:33:00;21.40;99.90
28484;DHT22;15704;48.834;8.736;2022-07-23T01:36:43;21.30;99.90
28484;DHT22;15704;48.834;8.736;2022-07-23T01:40:26;21.30;99.90
28484;DHT22;15704;48.834;8.736;2022-07-23T01:44:10;21.20;99.90
28484;DHT22;15704;48.834;8.736;2022-07-23T01:47:53;21.20;99.90
28484;DHT22;15704;48.834;8.736;2022-07-23T01:51:36;21.10;99.90
28484;DHT22;15704;48.834;8.736;2022-07-23T01:55:39;21.00;99.90
28484;DHT22;15704;48.834;8.736;2022-07-23T01:59:23;21.00;99.90
28484;DHT22;15704;48.834;8.736;2022-07-23T02:03:06;20.90;99.90
28484;DHT22;15704;48.834;8.736;2022-07-23T02:06:51;20.80;99.90
28484;DHT22;15704;48.834;8.736;2022-07-23T02:10:34;20.70;99.90
28484;DHT22;15704;48.834;8.736;2022-07-23T02:14:17;20.70;99.90
28484;DHT22;15704;48.834;8.736;2022-07-23T02:18:01;20.70;99.90
28484;DHT22;15704;48.834;8.736;2022-07-23T02:21:44;20.70;99.90
28484;DHT22;15704;48.834;8.736;2022-07-23T02:25:27;20.70;99.90
28484;DHT22;15704;48.834;8.736;2022-07-23T02:29:09;20.70;99.90
28484;DHT22;15704;48.834;8.736;2022-07-23T02:32:52;20.70;99.90
28484;DHT22;15704;48.834;8.736;2022-07-23T02:36:36;20.80;99.90
28484;DHT22;15704;48.834;8.736;2022-07-23T02:40:20;20.80;99.90
28484;DHT22;15704;48.834;8.736;2022-07-23T02:44:03;20.80;99.90
28484;DHT22;15704;48.834;8.736;2022-07-23T02:47:46;20.90;99.90
28484;DHT22;15704;48.834;8.736;2022-07-23T02:51:29;20.90;99.90
28484;DHT22;15704;48.834;8.736;2022-07-23T02:55:13;20.90;99.90
28484;DHT22;15704;48.834;8.736;2022-07-23T02:58:56;21.00;99.90
28484;DHT22;15704;48.834;8.736;2022-07-23T03:02:40;21.00;99.90
28484;DHT22;15704;48.834;8.736;2022-07-23T03:06:22;21.00;99.90
28484;DHT22;15704;48.834;8.736;2022-07-23T03:10:05;21.00;99.90
28484;DHT22;15704;48.834;8.736;2022-07-23T03:13:50;20.90;99.90
28484;DHT22;15704;48.834;8.736;2022-07-23T03:17:33;20.80;99.90
28484;DHT22;15704;48.834;8.736;2022-07-23T03:21:16;20.70;99.90
28484;DHT22;15704;48.834;8.736;2022-07-23T03:24:59;20.80;99.90
28484;DHT22;15704;48.834;8.736;2022-07-23T03:28:42;20.70;99.90
28484;DHT22;15704;48.834;8.736;2022-07-23T03:32:27;20.70;99.90
28484;DHT22;15704;48.834;8.736;2022-07-23T03:36:09;20.70;99.90
28484;DHT22;15704;48.834;8.736;2022-07-23T03:39:54;20.70;99.90
28484;DHT22;15704;48.834;8.736;2022-07-23T03:43:36;20.70;99.90
28484;DHT22;15704;48.834;8.736;2022-07-23T03:47:19;20.70;99.90
28484;DHT22;15704;48.834;8.736;2022-07-23T03:51:04;20.70;99.90
28484;DHT22;15704;48.834;8.736;2022-07-23T03:54:47;20.60;99.90
28484;DHT22;15704;48.834;8.736;2022-07-23T03:58:33;20.50;99.90
28484;DHT22;15704;48.834;8.736;2022-07-23T04:02:15;20.50;99.90
28484;DHT22;15704;48.834;8.736;2022-07-23T04:05:58;20.50;99.90
28484;DHT22;15704;48.834;8.736;2022-07-23T04:09:42;20.60;99.90
28484;DHT22;15704;48.834;8.736;2022-07-23T04:13:27;20.70;99.90
28484;DHT22;15704;48.834;8.736;2022-07-23T04:17:10;20.70;99.90
28484;DHT22;15704;48.834;8.736;2022-07-23T04:20:52;20.70;99.90
28484;DHT22;15704;48.834;8.736;2022-07-23T04:24:35;20.70;99.90
28484;DHT22;15704;48.834;8.736;2022-07-23T04:28:20;20.70;99.90
28484;DHT22;15704;48.834;8.736;2022-07-23T04:32:02;20.80;99.90
28484;DHT22;15704;48.834;8.736;2022-07-23T04:35:46;21.00;99.90
28484;DHT22;15704;48.834;8.736;2022-07-23T04:39:28;21.00;99.90
28484;DHT22;15704;48.834;8.736;2022-07-23T04:43:11;21.00;99.90
28484;DHT22;15704;48.834;8.736;2022-07-23T04:46:55;21.10;99.90
28484;DHT22;15704;48.834;8.736;2022-07-23T04:50:38;21.10;99.90
28484;DHT22;15704;48.834;8.736;2022-07-23T04:54:20;21.20;99.90
28484;DHT22;15704;48.834;8.736;2022-07-23T04:58:03;21.30;99.90
28484;DHT22;15704;48.834;8.736;2022-07-23T05:01:46;21.30;99.90
28484;DHT22;15704;48.834;8.736;2022-07-23T05:05:30;21.30;99.90
28484;DHT22;15704;48.834;8.736;2022-07-23T05:09:12;21.20;99.90
28484;DHT22;15704;48.834;8.736;2022-07-23T05:12:55;21.30;99.90
28484;DHT22;15704;48.834;8.736;2022-07-23T05:16:38;21.40;99.90
28484;DHT22;15704;48.834;8.736;2022-07-23T05:20:21;21.40;99.90
28484;DHT22;15704;48.834;8.736;2022-07-23T05:24:06;21.50;99.90
28484;DHT22;15704;48.834;8.736;2022-07-23T05:27:48;21.40;99.90
28484;DHT22;15704;48.834;8.736;2022-07-23T05:31:31;21.40;99.90
28484;DHT22;15704;48.834;8.736;2022-07-23T05:35:14;21.30;99.90
28484;DHT22;15704;48.834;8.736;2022-07-23T05:38:56;21.50;99.90
28484;DHT22;15704;48.834;8.736;2022-07-23T05:42:41;21.20;99.90
28484;DHT22;15704;48.834;8.736;2022-07-23T05:46:24;21.10;99.90
28484;DHT22;15704;48.834;8.736;2022-07-23T05:50:07;21.00;99.90
28484;DHT22;15704;48.834;8.736;2022-07-23T05:53:50;21.30;99.90
28484;DHT22;15704;48.834;8.736;2022-07-23T05:57:32;21.10;99.90
28484;DHT22;15704;48.834;8.736;2022-07-23T06:01:16;21.30;99.90
28484;DHT22;15704;48.834;8.736;2022-07-23T06:04:59;21.60;99.90
28484;DHT22;15704;48.834;8.736;2022-07-23T06:08:42;22.00;99.90
28484;DHT22;15704;48.834;8.736;2022-07-23T06:12:25;22.30;99.90
28484;DHT22;15704;48.834;8.736;2022-07-23T06:16:07;23.00;99.90
28484;DHT22;15704;48.834;8.736;2022-07-23T06:19:51;23.20;99.90
28484;DHT22;15704;48.834;8.736;2022-07-23T06:23:34;22.80;99.90
28484;DHT22;15704;48.834;8.736;2022-07-23T06:27:17;22.40;99.90
28484;DHT22;15704;48.834;8.736;2022-07-23T06:31:06;21.90;99.90
28484;DHT22;15704;48.834;8.736;2022-07-23T06:34:49;21.30;99.90
28484;DHT22;15704;48.834;8.736;2022-07-23T06:38:33;20.80;99.90
28484;DHT22;15704;48.834;8.736;2022-07-23T06:42:16;20.60;99.90
28484;DHT22;15704;48.834;8.736;2022-07-23T06:45:58;20.50;99.90
28484;DHT22;15704;48.834;8.736;2022-07-23T06:49:41;20.40;99.90
28484;DHT22;15704;48.834;8.736;2022-07-23T06:53:24;19.90;99.90
28484;DHT22;15704;48.834;8.736;2022-07-23T06:57:08;19.80;99.90
28484;DHT22;15704;48.834;8.736;2022-07-23T07:00:50;20.10;99.90
28484;DHT22;15704;48.834;8.736;2022-07-23T07:04:34;20.50;99.90
28484;DHT22;15704;48.834;8.736;2022-07-23T07:08:16;20.70;99.90
28484;DHT22;15704;48.834;8.736;2022-07-23T07:11:59;20.50;99.90
28484;DHT22;15704;48.834;8.736;2022-07-23T07:15:43;21.00;99.90
28484;DHT22;15704;48.834;8.736;2022-07-23T07:19:25;21.50;99.90
28484;DHT22;15704;48.834;8.736;2022-07-23T07:23:08;21.90;99.90
28484;DHT22;15704;48.834;8.736;2022-07-23T07:26:51;21.80;99.90
28484;DHT22;15704;48.834;8.736;2022-07-23T07:30:33;21.90;99.90
28484;DHT22;15704;48.834;8.736;2022-07-23T07:34:17;21.80;99.90
28484;DHT22;15704;48.834;8.736;2022-07-23T07:38:01;21.80;99.90
28484;DHT22;15704;48.834;8.736;2022-07-23T07:41:44;22.00;99.90
28484;DHT22;15704;48.834;8.736;2022-07-23T07:45:27;22.30;99.90
28484;DHT22;15704;48.834;8.736;2022-07-23T07:49:09;22.40;99.90
28484;DHT22;15704;48.834;8.736;2022-07-23T07:52:57;22.50;99.90
28484;DHT22;15704;48.834;8.736;2022-07-23T07:56:40;22.50;99.90
28484;DHT22;15704;48.834;8.736;2022-07-23T08:00:22;22.90;99.90
28484;DHT22;15704;48.834;8.736;2022-07-23T08:04:05;23.40;99.90
28484;DHT22;15704;48.834;8.736;2022-07-23T08:07:48;23.80;99.90
28484;DHT22;15704;48.834;8.736;2022-07-23T08:11:32;23.80;99.90
28484;DHT22;15704;48.834;8.736;2022-07-23T08:15:16;23.80;99.90
28484;DHT22;15704;48.834;8.736;2022-07-23T08:18:58;23.90;99.90
28484;DHT22;15704;48.834;8.736;2022-07-23T08:22:46;24.20;99.90
28484;DHT22;15704;48.834;8.736;2022-07-23T08:26:29;24.80;99.90
28484;DHT22;15704;48.834;8.736;2022-07-23T08:30:13;25.10;99.90
28484;DHT22;15704;48.834;8.736;2022-07-23T08:33:56;25.00;99.90
28484;DHT22;15704;48.834;8.736;2022-07-23T08:37:43;25.30;99.90
28484;DHT22;15704;48.834;8.736;2022-07-23T08:41:31;25.80;99.90
28484;DHT22;15704;48.834;8.736;2022-07-23T08:45:19;26.30;99.90
28484;DHT22;15704;48.834;8.736;2022-07-23T08:49:03;26.20;99.90
28484;DHT22;15704;48.834;8.736;2022-07-23T08:52:48;26.10;99.90
28484;DHT22;15704;48.834;8.736;2022-07-23T08:56:31;25.90;99.90
28484;DHT22;15704;48.834;8.736;2022-07-23T09:00:16;25.60;99.90
28484;DHT22;15704;48.834;8.736;2022-07-23T09:03:59;25.20;99.90
28484;DHT22;15704;48.834;8.736;2022-07-23T09:08:11;25.30;99.90
28484;DHT22;15704;48.834;8.736;2022-07-23T09:12:02;24.60;99.90
28484;DHT22;15704;48.834;8.736;2022-07-23T09:15:50;24.30;99.90
28484;DHT22;15704;48.834;8.736;2022-07-23T09:19:34;24.20;99.90
28484;DHT22;15704;48.834;8.736;2022-07-23T09:23:17;23.80;99.90
28484;DHT22;15704;48.834;8.736;2022-07-23T09:27:00;23.50;99.90
28484;DHT22;15704;48.834;8.736;2022-07-23T09:30:42;23.80;99.90
28484;DHT22;15704;48.834;8.736;2022-07-23T09:34:33;24.10;99.90
28484;DHT22;15704;48.834;8.736;2022-07-23T09:38:22;24.10;99.90
28484;DHT22;15704;48.834;8.736;2022-07-23T09:42:13;24.50;99.90
28484;DHT22;15704;48.834;8.736;2022-07-23T09:46:16;23.90;99.90
28484;DHT22;15704;48.834;8.736;2022-07-23T09:50:02;24.60;99.90
28484;DHT22;15704;48.834;8.736;2022-07-23T09:53:46;24.50;99.90
28484;DHT22;15704;48.834;8.736;2022-07-23T09:57:31;24.50;99.90
28484;DHT22;15704;48.834;8.736;2022-07-23T10:01:14;24.60;99.90
28484;DHT22;15704;48.834;8.736;2022-07-23T10:04:57;24.70;99.90
28484;DHT22;15704;48.834;8.736;2022-07-23T10:08:44;24.90;99.90
28484;DHT22;15704;48.834;8.736;2022-07-23T10:12:31;24.90;99.90
28484;DHT22;15704;48.834;8.736;2022-07-23T10:16:29;25.00;99.90
28484;DHT22;15704;48.834;8.736;2022-07-23T10:20:12;24.70;99.70
28484;DHT22;15704;48.834;8.736;2022-07-23T10:24:08;24.80;99.70
28484;DHT22;15704;48.834;8.736;2022-07-23T10:28:04;24.90;99.20
28484;DHT22;15704;48.834;8.736;2022-07-23T10:31:58;24.90;98.30
28484;DHT22;15704;48.834;8.736;2022-07-23T10:35:50;25.10;98.70
28484;DHT22;15704;48.834;8.736;2022-07-23T10:39:36;25.10;98.90
28484;DHT22;15704;48.834;8.736;2022-07-23T10:43:20;25.50;97.60
28484;DHT22;15704;48.834;8.736;2022-07-23T10:47:03;25.60;97.60
28484;DHT22;15704;48.834;8.736;2022-07-23T10:51:07;25.90;97.50
28484;DHT22;15704;48.834;8.736;2022-07-23T10:54:53;26.30;97.80
28484;DHT22;15704;48.834;8.736;2022-07-23T10:58:48;25.90;98.20
28484;DHT22;15704;48.834;8.736;2022-07-23T11:02:31;25.80;99.40
28484;DHT22;15704;48.834;8.736;2022-07-23T11:06:14;26.00;99.40
28484;DHT22;15704;48.834;8.736;2022-07-23T11:10:01;26.00;98.70
28484;DHT22;15704;48.834;8.736;2022-07-23T11:13:48;26.00;98.70
28484;DHT22;15704;48.834;8.736;2022-07-23T11:17:33;25.90;97.20
28484;DHT22;15704;48.834;8.736;2022-07-23T11:21:40;26.00;96.30
28484;DHT22;15704;48.834;8.736;2022-07-23T11:25:35;25.90;95.70
28484;DHT22;15704;48.834;8.736;2022-07-23T11:29:41;26.20;95.20
28484;DHT22;15704;48.834;8.736;2022-07-23T11:33:28;26.10;95.30
28484;DHT22;15704;48.834;8.736;2022-07-23T11:37:12;26.10;96.40
28484;DHT22;15704;48.834;8.736;2022-07-23T11:40:56;26.00;95.80
28484;DHT22;15704;48.834;8.736;2022-07-23T11:44:40;26.40;96.70
28484;DHT22;15704;48.834;8.736;2022-07-23T11:48:26;26.60;97.00
28484;DHT22;15704;48.834;8.736;2022-07-23T11:52:11;26.30;97.00
28484;DHT22;15704;48.834;8.736;2022-07-23T11:55:56;26.50;97.10
28484;DHT22;15704;48.834;8.736;2022-07-23T11:59:47;26.20;95.90
28484;DHT22;15704;48.834;8.736;2022-07-23T12:03:30;26.10;95.20
28484;DHT22;15704;48.834;8.736;2022-07-23T12:07:28;26.30;96.30
28484;DHT22;15704;48.834;8.736;2022-07-23T12:11:13;26.50;95.40
28484;DHT22;15704;48.834;8.736;2022-07-23T12:14:57;26.80;94.70
28484;DHT22;15704;48.834;8.736;2022-07-23T12:18:40;27.00;94.20
28484;DHT22;15704;48.834;8.736;2022-07-23T12:22:24;26.70;94.20
28484;DHT22;15704;48.834;8.736;2022-07-23T12:26:07;26.60;93.10
28484;DHT22;15704;48.834;8.736;2022-07-23T12:29:54;26.50;94.50
28484;DHT22;15704;48.834;8.736;2022-07-23T12:33:38;26.30;94.50
28484;DHT22;15704;48.834;8.736;2022-07-23T12:37:31;26.30;95.50
28484;DHT22;15704;48.834;8.736;2022-07-23T12:41:14;26.50;94.20
28484;DHT22;15704;48.834;8.736;2022-07-23T12:45:10;26.50;94.00
28484;DHT22;15704;48.834;8.736;2022-07-23T12:48:54;26.50;94.10
28484;DHT22;15704;48.834;8.736;2022-07-23T12:52:37;26.50;93.00
28484;DHT22;15704;48.834;8.736;2022-07-23T12:56:22;26.50;93.30
28484;DHT22;15704;48.834;8.736;2022-07-23T13:00:11;26.40;93.10
28484;DHT22;15704;48.834;8.736;2022-07-23T13:03:57;26.40;93.40
28484;DHT22;15704;48.834;8.736;2022-07-23T13:07:41;26.40;94.00
28484;DHT22;15704;48.834;8.736;2022-07-23T13:11:24;26.70;92.90
28484;DHT22;15704;48.834;8.736;2022-07-23T13:15:08;26.60;93.20
28484;DHT22;15704;48.834;8.736;2022-07-23T13:18:52;26.60;92.80
28484;DHT22;15704;48.834;8.736;2022-07-23T13:22:34;26.80;93.00
28484;DHT22;15704;48.834;8.736;2022-07-23T13:26:18;26.60;92.90
28484;DHT22;15704;48.834;8.736;2022-07-23T13:30:03;26.80;92.90
28484;DHT22;15704;48.834;8.736;2022-07-23T13:33:46;26.30;93.10
28484;DHT22;15704;48.834;8.736;2022-07-23T13:37:31;26.40;93.30
28484;DHT22;15704;48.834;8.736;2022-07-23T13:41:14;26.50;93.30
28484;DHT22;15704;48.834;8.736;2022-07-23T13:44:59;26.60;92.60
28484;DHT22;15704;48.834;8.736;2022-07-23T13:48:42;27.00;92.20
28484;DHT22;15704;48.834;8.736;2022-07-23T13:52:25;27.40;92.00
28484;DHT22;15704;48.834;8.736;2022-07-23T13:56:09;27.50;90.70
28484;DHT22;15704;48.834;8.736;2022-07-23T13:59:52;28.00;90.50
28484;DHT22;15704;48.834;8.736;2022-07-23T14:03:35;27.90;90.20
28484;DHT22;15704;48.834;8.736;2022-07-23T14:07:18;27.90;90.30
28484;DHT22;15704;48.834;8.736;2022-07-23T14:11:01;27.90;89.40
28484;DHT22;15704;48.834;8.736;2022-07-23T14:14:49;27.80;90.20
28484;DHT22;15704;48.834;8.736;2022-07-23T14:18:31;27.80;89.50
28484;DHT22;15704;48.834;8.736;2022-07-23T14:22:14;27.80;90.10
28484;DHT22;15704;48.834;8.736;2022-07-23T14:25:57;27.80;90.10
28484;DHT22;15704;48.834;8.736;2022-07-23T14:29:40;27.70;89.40
28484;DHT22;15704;48.834;8.736;2022-07-23T14:33:24;27.50;89.60
28484;DHT22;15704;48.834;8.736;2022-07-23T14:37:07;27.40;90.70
28484;DHT22;15704;48.834;8.736;2022-07-23T14:40:55;27.30;91.30
28484;DHT22;15704;48.834;8.736;2022-07-23T14:44:38;27.30;91.00
28484;DHT22;15704;48.834;8.736;2022-07-23T14:48:21;27.80;91.00
28484;DHT22;15704;48.834;8.736;2022-07-23T14:52:06;27.70;90.50
28484;DHT22;15704;48.834;8.736;2022-07-23T14:55:49;27.80;90.60
28484;DHT22;15704;48.834;8.736;2022-07-23T14:59:32;27.60;90.50
28484;DHT22;15704;48.834;8.736;2022-07-23T15:03:15;27.90;90.70
28484;DHT22;15704;48.834;8.736;2022-07-23T15:06:58;27.50;91.10
28484;DHT22;15704;48.834;8.736;2022-07-23T15:10:42;27.30;90.50
28484;DHT22;15704;48.834;8.736;2022-07-23T15:14:25;27.10;90.80
28484;DHT22;15704;48.834;8.736;2022-07-23T15:18:15;27.30;91.40
28484;DHT22;15704;48.834;8.736;2022-07-23T15:21:58;27.60;91.60
28484;DHT22;15704;48.834;8.736;2022-07-23T15:25:44;27.40;91.30
28484;DHT22;15704;48.834;8.736;2022-07-23T15:29:31;27.50;91.60
28484;DHT22;15704;48.834;8.736;2022-07-23T15:33:14;27.70;91.70
28484;DHT22;15704;48.834;8.736;2022-07-23T15:37:02;27.70;91.30
28484;DHT22;15704;48.834;8.736;2022-07-23T15:40:56;28.00;90.80
28484;DHT22;15704;48.834;8.736;2022-07-23T15:44:39;28.20;90.70
28484;DHT22;15704;48.834;8.736;2022-07-23T15:48:22;28.20;90.20
28484;DHT22;15704;48.834;8.736;2022-07-23T15:52:05;28.00;90.40
28484;DHT22;15704;48.834;8.736;2022-07-23T15:55:49;27.70;90.30
28484;DHT22;15704;48.834;8.736;2022-07-23T15:59:33;28.00;90.20
28484;DHT22;15704;48.834;8.736;2022-07-23T16:03:16;27.70;90.20
28484;DHT22;15704;48.834;8.736;2022-07-23T16:06:59;27.20;91.10
28484;DHT22;15704;48.834;8.736;2022-07-23T16:10:41;27.00;91.10
28484;DHT22;15704;48.834;8.736;2022-07-23T16:14:24;26.80;91.40
28484;DHT22;15704;48.834;8.736;2022-07-23T16:18:08;26.90;91.40
28484;DHT22;15704;48.834;8.736;2022-07-23T16:21:51;27.10;91.40
28484;DHT22;15704;48.834;8.736;2022-07-23T16:25:34;27.20;91.30
28484;DHT22;15704;48.834;8.736;2022-07-23T16:29:17;27.80;90.50
28484;DHT22;15704;48.834;8.736;2022-07-23T16:33:01;28.40;89.90
28484;DHT22;15704;48.834;8.736;2022-07-23T16:36:48;28.80;89.70
28484;DHT22;15704;48.834;8.736;2022-07-23T16:40:32;28.80;88.20
28484;DHT22;15704;48.834;8.736;2022-07-23T16:44:15;28.50;89.60
28484;DHT22;15704;48.834;8.736;2022-07-23T16:47:58;28.00;88.60
28484;DHT22;15704;48.834;8.736;2022-07-23T16:51:41;27.80;90.20
28484;DHT22;15704;48.834;8.736;2022-07-23T16:55:25;28.20;89.70
28484;DHT22;15704;48.834;8.736;2022-07-23T16:59:08;27.80;90.00
28484;DHT22;15704;48.834;8.736;2022-07-23T17:02:51;28.10;90.30
28484;DHT22;15704;48.834;8.736;2022-07-23T17:06:34;27.80;90.40
28484;DHT22;15704;48.834;8.736;2022-07-23T17:10:17;27.70;90.50
28484;DHT22;15704;48.834;8.736;2022-07-23T17:14:00;28.00;90.50
28484;DHT22;15704;48.834;8.736;2022-07-23T17:17:43;28.10;90.10
28484;DHT22;15704;48.834;8.736;2022-07-23T17:21:26;28.00;89.50
28484;DHT22;15704;48.834;8.736;2022-07-23T17:25:10;28.30;90.20
28484;DHT22;15704;48.834;8.736;2022-07-23T17:28:54;28.10;89.80
28484;DHT22;15704;48.834;8.736;2022-07-23T17:32:38;27.70;90.70
28484;DHT22;15704;48.834;8.736;2022-07-23T17:36:21;27.30;91.00
28484;DHT22;15704;48.834;8.736;2022-07-23T17:40:05;26.80;91.40
28484;DHT22;15704;48.834;8.736;2022-07-23T17:43:48;26.60;92.10
28484;DHT22;15704;48.834;8.736;2022-07-23T17:47:31;26.30;92.30
28484;DHT22;15704;48.834;8.736;2022-07-23T17:51:15;26.20;92.40
28484;DHT22;15704;48.834;8.736;2022-07-23T17:54:58;25.90;93.10
28484;DHT22;15704;48.834;8.736;2022-07-23T17:58:40;25.80;93.10
28484;DHT22;15704;48.834;8.736;2022-07-23T18:02:23;25.70;93.40
28484;DHT22;15704;48.834;8.736;2022-07-23T18:06:07;25.70;93.80
28484;DHT22;15704;48.834;8.736;2022-07-23T18:09:51;25.70;94.00
28484;DHT22;15704;48.834;8.736;2022-07-23T18:13:34;25.60;94.10
28484;DHT22;15704;48.834;8.736;2022-07-23T18:17:17;25.60;94.60
28484;DHT22;15704;48.834;8.736;2022-07-23T18:21:02;25.70;94.10
28484;DHT22;15704;48.834;8.736;2022-07-23T18:24:46;25.50;94.20
28484;DHT22;15704;48.834;8.736;2022-07-23T18:28:30;25.50;94.20
28484;DHT22;15704;48.834;8.736;2022-07-23T18:32:12;25.60;94.30
28484;DHT22;15704;48.834;8.736;2022-07-23T18:35:55;25.80;94.10
28484;DHT22;15704;48.834;8.736;2022-07-23T18:39:38;25.80;93.80
28484;DHT22;15704;48.834;8.736;2022-07-23T18:43:22;25.60;94.00
28484;DHT22;15704;48.834;8.736;2022-07-23T18:47:06;25.40;94.10
28484;DHT22;15704;48.834;8.736;2022-07-23T18:50:49;25.20;94.50
28484;DHT22;15704;48.834;8.736;2022-07-23T18:54:32;25.00;95.00
28484;DHT22;15704;48.834;8.736;2022-07-23T18:58:15;24.80;95.20
28484;DHT22;15704;48.834;8.736;2022-07-23T19:02:00;24.60;95.70
28484;DHT22;15704;48.834;8.736;2022-07-23T19:05:44;24.40;96.00
28484;DHT22;15704;48.834;8.736;2022-07-23T19:09:27;24.30;96.10
28484;DHT22;15704;48.834;8.736;2022-07-23T19:13:14;24.10;96.40
28484;DHT22;15704;48.834;8.736;2022-07-23T19:16:59;24.00;96.70
28484;DHT22;15704;48.834;8.736;2022-07-23T19:20:43;23.80;97.00
28484;DHT22;15704;48.834;8.736;2022-07-23T19:24:26;23.70;97.90
28484;DHT22;15704;48.834;8.736;2022-07-23T19:28:09;23.50;97.70
28484;DHT22;15704;48.834;8.736;2022-07-23T19:31:52;23.50;97.90
28484;DHT22;15704;48.834;8.736;2022-07-23T19:35:35;23.30;98.00
28484;DHT22;15704;48.834;8.736;2022-07-23T19:39:20;23.20;98.60
28484;DHT22;15704;48.834;8.736;2022-07-23T19:43:02;23.20;97.80
28484;DHT22;15704;48.834;8.736;2022-07-23T19:46:45;23.20;98.10
28484;DHT22;15704;48.834;8.736;2022-07-23T19:50:28;23.10;98.30
28484;DHT22;15704;48.834;8.736;2022-07-23T19:54:11;23.00;98.50
28484;DHT22;15704;48.834;8.736;2022-07-23T19:57:54;22.90;98.70
28484;DHT22;15704;48.834;8.736;2022-07-23T20:01:37;22.80;98.90
28484;DHT22;15704;48.834;8.736;2022-07-23T20:05:21;22.70;98.90
28484;DHT22;15704;48.834;8.736;2022-07-23T20:09:04;22.70;99.00
28484;DHT22;15704;48.834;8.736;2022-07-23T20:12:47;22.60;99.00
28484;DHT22;15704;48.834;8.736;2022-07-23T20:16:31;22.50;99.10
28484;DHT22;15704;48.834;8.736;2022-07-23T20:20:14;22.50;98.80
28484;DHT22;15704;48.834;8.736;2022-07-23T20:23:57;22.40;98.90
28484;DHT22;15704;48.834;8.736;2022-07-23T20:27:39;22.40;98.90
28484;DHT22;15704;48.834;8.736;2022-07-23T20:31:22;22.40;98.90
28484;DHT22;15704;48.834;8.736;2022-07-23T20:35:07;22.30;99.40
28484;DHT22;15704;48.834;8.736;2022-07-23T20:38:50;22.30;99.70
28484;DHT22;15704;48.834;8.736;2022-07-23T20:42:33;22.20;99.70
28484;DHT22;15704;48.834;8.736;2022-07-23T20:46:15;22.20;99.70
28484;DHT22;15704;48.834;8.736;2022-07-23T20:50:01;22.10;99.90
28484;DHT22;15704;48.834;8.736;2022-07-23T20:53:45;22.00;99.90
28484;DHT22;15704;48.834;8.736;2022-07-23T20:57:27;22.00;99.90
28484;DHT22;15704;48.834;8.736;2022-07-23T21:01:10;22.00;99.90
28484;DHT22;15704;48.834;8.736;2022-07-23T21:04:53;21.90;99.90
28484;DHT22;15704;48.834;8.736;2022-07-23T21:08:35;21.90;99.90
28484;DHT22;15704;48.834;8.736;2022-07-23T21:12:20;21.80;99.90
28484;DHT22;15704;48.834;8.736;2022-07-23T21:16:04;21.80;99.90
28484;DHT22;15704;48.834;8.736;2022-07-23T21:19:47;21.70;99.90
28484;DHT22;15704;48.834;8.736;2022-07-23T21:23:30;21.60;99.90
28484;DHT22;15704;48.834;8.736;2022-07-23T21:27:17;21.50;99.90
28484;DHT22;15704;48.834;8.736;2022-07-23T21:31:01;21.50;99.90
28484;DHT22;15704;48.834;8.736;2022-07-23T21:34:44;21.50;99.90
28484;DHT22;15704;48.834;8.736;2022-07-23T21:38:27;21.50;99.90
28484;DHT22;15704;48.834;8.736;2022-07-23T21:42:10;21.50;99.90
28484;DHT22;15704;48.834;8.736;2022-07-23T21:45:52;21.50;99.90
28484;DHT22;15704;48.834;8.736;2022-07-23T21:49:36;21.50;99.90
28484;DHT22;15704;48.834;8.736;2022-07-23T21:53:18;21.50;99.90
28484;DHT22;15704;48.834;8.736;2022-07-23T21:57:01;21.50;99.90
28484;DHT22;15704;48.834;8.736;2022-07-23T22:00:43;21.60;99.90
28484;DHT22;15704;48.834;8.736;2022-07-23T22:04:26;21.50;99.90
28484;DHT22;15704;48.834;8.736;2022-07-23T22:08:10;21.60;99.90
28484;DHT22;15704;48.834;8.736;2022-07-23T22:11:52;21.70;99.90
28484;DHT22;15704;48.834;8.736;2022-07-23T22:15:34;21.70;99.90
28484;DHT22;15704;48.834;8.736;2022-07-23T22:19:17;21.80;99.90
28484;DHT22;15704;48.834;8.736;2022-07-23T22:22:59;21.80;99.90
28484;DHT22;15704;48.834;8.736;2022-07-23T22:26:44;21.90;99.90
28484;DHT22;15704;48.834;8.736;2022-07-23T22:30:26;21.90;99.90
28484;DHT22;15704;48.834;8.736;2022-07-23T22:34:09;21.80;99.90
28484;DHT22;15704;48.834;8.736;2022-07-23T22:53:21;21.40;99.90
28484;DHT22;15704;48.834;8.736;2022-07-23T22:57:03;21.20;99.90
28484;DHT22;15704;48.834;8.736;2022-07-23T23:00:46;21.20;99.90
28484;DHT22;15704;48.834;8.736;2022-07-23T23:04:29;21.20;99.90
28484;DHT22;15704;48.834;8.736;2022-07-23T23:08:11;21.20;99.90
28484;DHT22;15704;48.834;8.736;2022-07-23T23:11:55;21.30;99.90
28484;DHT22;15704;48.834;8.736;2022-07-23T23:15:38;21.30;99.90
28484;DHT22;15704;48.834;8.736;2022-07-23T23:19:22;21.30;99.90
28484;DHT22;15704;48.834;8.736;2022-07-23T23:23:04;21.40;99.90
28484;DHT22;15704;48.834;8.736;2022-07-23T23:26:47;21.50;99.90
28484;DHT22;15704;48.834;8.736;2022-07-23T23:30:31;21.50;99.90
28484;DHT22;15704;48.834;8.736;2022-07-23T23:34:14;21.50;99.90
28484;DHT22;15704;48.834;8.736;2022-07-23T23:37:56;21.60;99.70
28484;DHT22;15704;48.834;8.736;2022-07-23T23:41:39;21.60;99.90
28484;DHT22;15704;48.834;8.736;2022-07-23T23:45:21;21.60;99.70
28484;DHT22;15704;48.834;8.736;2022-07-23T23:49:05;21.60;99.50
28484;DHT22;15704;48.834;8.736;2022-07-23T23:52:49;21.60;99.40